KTCS/TCS METAR and TAF weather

Enter ICAO airport designator
Station Type Date Time Source
KTCS METAR 2020/07/06 22:53 UTC NOAA

KTCS 062253Z AUTO 33013G26KT 10SM CLR 37/04 A3002 RMK AO2 PK WND 31028/2229 SLP058 T03720044


Station Type Date Time Source
KTCS Decoded METAR 2020/07/06 22:53 UTC NOAA

TRUTH OR CONSEQUENCES MUNI, NM, United States (KTCS) 33-14N 107-16W 1469M
Jul 06, 2020 - 06:53 PM EDT / 2020.07.06 2253 UTC
Wind: from the NNW (330 degrees) at 15 MPH (13 KT) gusting to 30 MPH (26 KT):0
Visibility: 10 mile(s):0
Sky conditions: clear
Temperature: 99.0 F (37.2 C)
Dew Point: 39.9 F (4.4 C)
Relative Humidity: 13%
Pressure (altimeter): 30.02 in. Hg (1016 hPa)
ob: KTCS 062253Z AUTO 33013G26KT 10SM CLR 37/04 A3002 RMK AO2 PK WND 31028/2229 SLP058 T03720044
cycle: 23

Station Type Date Time Source
KTCS TAF 2020/07/06 18:39 UTC NOAA

TAF KTCS 061737Z 0618/0718 08006KT P6SM BKN150
TEMPO 0620/0624 VRB15G35KT P6SM TS SCT050CB
FM070200 13010G20KT P6SM BKN120
FM070600 27005KT P6SM SCT120

Example: see airport list